Serval — J8B4154 — position and weather

sailwx.info

Track history (hours):
 
Tides and Currents Weather Stations Pressure Air Temp Water Temp Dewpoint Dewpoint Depression Visibility Wind Speed Wind Dir Waves Ship Positions

Serval

Last reported at 2015-May-25 00:31 UTC. Time now 2015-May-30 16:41 UTC.
Position N 53°37' E 006°32'.

Length 30 m; draft 4.5 m.

Type: . MMSI: 377103000.

Date/timePositionNaut miles runAvg speedWind from/ knotsBaromVisibWave heightAir tempDewpointWater temp
2015-May-25 00:31N 53°37' E 006°32'6 6.0
2015-May-24 23:32N 53°34' E 006°40'5 4.9
2015-May-24 22:33N 53°31' E 006°47'4 4.4
2015-May-24 21:34N 53°27' E 006°50'0 0.0
2015-May-24 20:31N 53°27' E 006°50'0 0.0
2015-May-24 19:31N 53°27' E 006°50'0 0.0
2015-May-24 18:31N 53°27' E 006°50'0 0.0
2015-May-24 17:31N 53°27' E 006°50'0 0.0
2015-May-24 16:31N 53°27' E 006°50'0 0.0
2015-May-24 15:31N 53°27' E 006°50'0 0.0
2015-May-24 14:33N 53°27' E 006°50'0 0.0
2015-May-24 13:33N 53°27' E 006°50'0 0.0
2015-May-24 12:33N 53°27' E 006°50'0 0.0
2015-May-24 11:33N 53°27' E 006°50'0 0.0
2015-May-24 10:33N 53°27' E 006°50'0 0.0
2015-May-24 09:33N 53°27' E 006°50'0 0.0
2015-May-24 08:33N 53°27' E 006°50'0 0.0
2015-May-24 07:33N 53°27' E 006°50'0 0.0
2015-May-24 06:33N 53°27' E 006°50'0 0.0
2015-May-24 05:33N 53°27' E 006°50'0 0.0
2015-May-24 04:33N 53°27' E 006°50'0 0.0
2015-May-24 03:33N 53°27' E 006°50'0 0.0
2015-May-24 02:33N 53°27' E 006°50'0 0.0
2015-May-24 01:33N 53°27' E 006°50'0 0.0
2015-May-24 00:33N 53°27' E 006°50'0 0.0
2015-May-23 23:33N 53°27' E 006°50'0 0.0
2015-May-23 22:33N 53°27' E 006°50'0 0.0
2015-May-23 21:33N 53°27' E 006°50'0 0.0
2015-May-23 20:33N 53°27' E 006°50'0 0.0
2015-May-23 19:33N 53°27' E 006°50'0 0.0
2015-May-23 18:33N 53°27' E 006°50'0 0.0
2015-May-23 17:33N 53°27' E 006°50'0 0.0
2015-May-23 16:33N 53°27' E 006°50'0 0.0
2015-May-23 15:33N 53°27' E 006°50'0 0.0
2015-May-23 14:33N 53°27' E 006°50'0 0.0
2015-May-23 13:33N 53°27' E 006°50'0 0.0
2015-May-23 12:33N 53°27' E 006°50'0 0.0
2015-May-23 11:33N 53°27' E 006°50'0 0.0
2015-May-23 10:33N 53°27' E 006°50'0 0.0
2015-May-23 09:33N 53°27' E 006°50'0 0.0
2015-May-23 08:33N 53°27' E 006°50'0 0.0
2015-May-23 07:33N 53°27' E 006°50'0 0.0
2015-May-23 06:33N 53°27' E 006°50'0 0.0
2015-May-23 05:33N 53°27' E 006°50'0 0.2
2015-May-23 04:33N 53°27' E 006°49'3 3.3
2015-May-23 03:33N 53°30' E 006°48'  
2015-May-18 12:19N 53°37' E 006°18'  
2015-May-15 23:08N 53°36' E 006°22'  
Track history (hours):
 
Tides and Currents Weather Stations Pressure Air Temp Water Temp Dewpoint Dewpoint Depression Visibility Wind Speed Wind Dir Waves Ship Positions

Serval

Last reported at 2015-May-25 00:31 UTC. Time now 2015-May-30 16:41 UTC.
Position N 53°37' E 006°32'.

Length 30 m; draft 4.5 m.

Type: . MMSI: 377103000.

Date/timePositionNaut miles runAvg speedWind from/ knotsBaromVisibWave heightAir tempDewpointWater temp
2015-May-25 00:31N 53°37' E 006°32'6 6.0
2015-May-24 23:32N 53°34' E 006°40'5 4.9
2015-May-24 22:33N 53°31' E 006°47'4 4.4
2015-May-24 21:34N 53°27' E 006°50'0 0.0
2015-May-24 20:31N 53°27' E 006°50'0 0.0
2015-May-24 19:31N 53°27' E 006°50'0 0.0
2015-May-24 18:31N 53°27' E 006°50'0 0.0
2015-May-24 17:31N 53°27' E 006°50'0 0.0
2015-May-24 16:31N 53°27' E 006°50'0 0.0
2015-May-24 15:31N 53°27' E 006°50'0 0.0
2015-May-24 14:33N 53°27' E 006°50'0 0.0
2015-May-24 13:33N 53°27' E 006°50'0 0.0
2015-May-24 12:33N 53°27' E 006°50'0 0.0
2015-May-24 11:33N 53°27' E 006°50'0 0.0
2015-May-24 10:33N 53°27' E 006°50'0 0.0
2015-May-24 09:33N 53°27' E 006°50'0 0.0
2015-May-24 08:33N 53°27' E 006°50'0 0.0
2015-May-24 07:33N 53°27' E 006°50'0 0.0
2015-May-24 06:33N 53°27' E 006°50'0 0.0
2015-May-24 05:33N 53°27' E 006°50'0 0.0
2015-May-24 04:33N 53°27' E 006°50'0 0.0
2015-May-24 03:33N 53°27' E 006°50'0 0.0
2015-May-24 02:33N 53°27' E 006°50'0 0.0
2015-May-24 01:33N 53°27' E 006°50'0 0.0
2015-May-24 00:33N 53°27' E 006°50'0 0.0
2015-May-23 23:33N 53°27' E 006°50'0 0.0
2015-May-23 22:33N 53°27' E 006°50'0 0.0
2015-May-23 21:33N 53°27' E 006°50'0 0.0
2015-May-23 20:33N 53°27' E 006°50'0 0.0
2015-May-23 19:33N 53°27' E 006°50'0 0.0
2015-May-23 18:33N 53°27' E 006°50'0 0.0
2015-May-23 17:33N 53°27' E 006°50'0 0.0
2015-May-23 16:33N 53°27' E 006°50'0 0.0
2015-May-23 15:33N 53°27' E 006°50'0 0.0
2015-May-23 14:33N 53°27' E 006°50'0 0.0
2015-May-23 13:33N 53°27' E 006°50'0 0.0
2015-May-23 12:33N 53°27' E 006°50'0 0.0
2015-May-23 11:33N 53°27' E 006°50'0 0.0
2015-May-23 10:33N 53°27' E 006°50'0 0.0
2015-May-23 09:33N 53°27' E 006°50'0 0.0
2015-May-23 08:33N 53°27' E 006°50'0 0.0
2015-May-23 07:33N 53°27' E 006°50'0 0.0
2015-May-23 06:33N 53°27' E 006°50'0 0.0
2015-May-23 05:33N 53°27' E 006°50'0 0.2
2015-May-23 04:33N 53°27' E 006°49'3 3.3
2015-May-23 03:33N 53°30' E 006°48'  
2015-May-18 12:19N 53°37' E 006°18'  
2015-May-15 23:08N 53°36' E 006°22'  

Dump ship's entire track history